Hua Hin, Thailand
Current Conditions -  °F | °C
As of 5:00 AM on Friday 19 Dec 2014 (Local Time) from VTBU Reporting Station
Haze Haze  
Wind Chill: 72°   Ceiling: Unl
Heat Index: 72°   Visibility: 1.8mi
Dew Point: 55°   Wind: 9mph
Humidity: 57%   Direction: 70°ENE
Pressure: 29.94"   Gusts: NA
Location:  12.57°N, 99.95°E
Report Text: VTBU 182200Z 07008KT 3000 HZ NSC 22/13 Q1014 A2996
Loading
Personal Weather Stations






























Interactive Weather Map New forecast layout! Learn more

10-Day Weather Forecast

Advertisements
Track Severe Weather on mobile